Time;durP1;ratioP1;P1;durP2;ratioP2;P2;SDS_P1;SDS_P2;PMS_P1;PMS_P2;Temp;Humidity;BMP_temperature;BMP_pressure;BME280_temperature;BME280_humidity;BME280_pressure;Samples;Min_cycle;Max_cycle;Signal;HPM_P1;HPM_P2
2023/08/08 00:01:42;;;;;;;7.00;2.93;;;13.20;1.00;;;;;;5109160;28;20273;-49
2023/08/08 00:04:10;;;;;;;8.17;3.53;;;13.20;1.00;;;;;;5110840;28;20183;-49
2023/08/08 00:06:36;;;;;;;9.40;2.50;;;13.20;7.40;;;;;;5108981;28;20444;-49
2023/08/08 00:09:02;;;;;;;5.83;2.70;;;13.20;84.80;;;;;;5104986;28;20494;-50
2023/08/08 00:11:27;;;;;;;7.87;3.10;;;13.20;99.90;;;;;;5107900;28;20923;-48
2023/08/08 00:13:53;;;;;;;7.43;2.77;;;13.10;99.90;;;;;;5109890;28;20184;-50
2023/08/08 00:16:18;;;;;;;5.33;2.93;;;13.10;99.90;;;;;;5109254;28;20657;-49
2023/08/08 00:18:44;;;;;;;8.17;3.07;;;13.00;1.00;;;;;;5108379;28;20191;-50
2023/08/08 00:21:09;;;;;;;9.53;3.67;;;13.00;99.90;;;;;;5108128;28;20309;-50
2023/08/08 00:23:35;;;;;;;3.93;3.20;;;12.90;1.00;;;;;;5109343;28;20555;-49
2023/08/08 00:26:01;;;;;;;5.00;2.60;;;12.90;99.90;;;;;;5109672;28;20210;-50
2023/08/08 00:28:26;;;;;;;5.83;2.93;;;12.90;99.90;;;;;;5108850;28;20257;-50
2023/08/08 00:30:52;;;;;;;6.70;3.03;;;12.90;79.60;;;;;;5115650;28;20226;-51
2023/08/08 00:33:17;;;;;;;8.07;2.83;;;12.90;99.90;;;;;;5109878;28;20194;-50
2023/08/08 00:35:44;;;;;;;9.63;3.50;;;12.90;1.00;;;;;;5108894;28;20184;-50
2023/08/08 00:38:10;;;;;;;6.57;3.03;;;12.80;1.00;;;;;;5108604;28;20670;-50
2023/08/08 00:40:35;;;;;;;7.80;2.93;;;12.80;99.90;;;;;;5107303;28;20442;-50
2023/08/08 00:43:01;;;;;;;14.57;4.00;;;12.80;1.00;;;;;;5109697;28;20265;-49
2023/08/08 00:45:28;;;;;;;12.47;3.67;;;12.80;6.50;;;;;;5107515;28;20541;-49
2023/08/08 00:47:54;;;;;;;7.77;2.90;;;12.80;99.90;;;;;;5108814;28;20182;-49
2023/08/08 00:50:20;;;;;;;6.50;2.60;;;12.80;99.90;;;;;;5108697;28;21041;-50
2023/08/08 00:52:46;;;;;;;8.30;2.87;;;12.80;84.40;;;;;;5108267;28;20424;-49
2023/08/08 00:55:12;;;;;;;5.37;2.70;;;12.80;1.00;;;;;;5108878;28;20441;-49
2023/08/08 00:57:38;;;;;;;8.27;3.10;;;12.80;1.00;;;;;;5108881;28;20270;-49
2023/08/08 01:00:09;;;;;;;5.80;2.90;;;12.80;1.00;;;;;;5108532;28;20184;-50
2023/08/08 01:02:34;;;;;;;4.47;2.60;;;12.70;1.00;;;;;;5108122;28;20968;-50
2023/08/08 01:05:01;;;;;;;4.50;2.70;;;12.70;1.00;;;;;;5108028;28;20482;-49
2023/08/08 01:07:41;;;;;;;6.40;3.60;;;12.70;99.90;;;;;;5109470;28;20198;-50
2023/08/08 01:10:15;;;;;;;7.10;3.20;;;12.60;1.00;;;;;;5107847;28;20437;-50
2023/08/08 01:12:52;;;;;;;14.63;3.00;;;12.60;1.00;;;;;;5106708;28;20934;-49
2023/08/08 01:15:19;;;;;;;5.97;2.60;;;12.60;1.00;;;;;;5107039;28;20440;-47
2023/08/08 01:17:46;;;;;;;9.07;3.30;;;12.60;91.90;;;;;;5109786;28;20511;-48
2023/08/08 01:20:17;;;;;;;4.53;2.70;;;12.70;99.90;;;;;;5106949;28;20519;-49
2023/08/08 01:23:03;;;;;;;8.20;2.60;;;12.70;90.90;;;;;;5104820;28;20473;-48
2023/08/08 01:25:30;;;;;;;8.90;3.93;;;12.70;97.10;;;;;;5108813;28;20439;-48
2023/08/08 01:27:55;;;;;;;5.37;2.83;;;12.60;63.40;;;;;;5107010;28;20442;-48
2023/08/08 01:30:21;;;;;;;4.70;2.70;;;12.70;72.60;;;;;;5108290;28;20486;-48
2023/08/08 01:32:46;;;;;;;6.33;2.50;;;12.70;74.10;;;;;;5108246;28;20187;-48
2023/08/08 01:35:12;;;;;;;5.00;2.47;;;12.60;83.70;;;;;;5106655;28;20210;-48
2023/08/08 01:37:46;;;;;;;6.33;2.90;;;12.70;51.40;;;;;;5108441;28;20219;-48
2023/08/08 01:40:15;;;;;;;10.77;3.47;;;12.70;53.30;;;;;;5106223;28;20176;-48
2023/08/08 01:42:46;;;;;;;10.87;2.70;;;12.70;1.00;;;;;;5106490;28;20488;-47
2023/08/08 01:45:13;;;;;;;10.10;2.90;;;12.70;1.00;;;;;;5107766;28;20438;-48
2023/08/08 01:47:38;;;;;;;5.50;2.60;;;12.60;1.00;;;;;;5106676;28;20542;-47
2023/08/08 01:50:05;;;;;;;8.80;2.93;;;12.60;1.00;;;;;;5110689;28;20522;-48
2023/08/08 01:52:31;;;;;;;8.57;2.60;;;12.60;1.00;;;;;;5112605;28;20192;-48
2023/08/08 01:54:56;;;;;;;3.90;2.50;;;12.60;1.00;;;;;;5111522;28;20427;-48
2023/08/08 01:57:22;;;;;;;14.50;2.80;;;12.60;1.00;;;;;;5112723;28;20196;-47
2023/08/08 01:59:48;;;;;;;7.03;2.80;;;12.60;1.00;;;;;;5111323;28;20187;-48
2023/08/08 02:02:15;;;;;;;9.10;2.63;;;12.60;99.90;;;;;;5111751;28;20222;-48
2023/08/08 02:04:40;;;;;;;9.03;2.80;;;12.60;99.90;;;;;;5112499;28;20195;-47
2023/08/08 02:07:06;;;;;;;5.00;2.00;;;12.60;1.00;;;;;;5111582;28;20435;-48
2023/08/08 02:09:31;;;;;;;5.17;2.03;;;12.60;1.00;;;;;;5111362;28;20569;-48
2023/08/08 02:11:57;;;;;;;4.20;2.10;;;12.60;1.00;;;;;;5110639;28;20271;-48
2023/08/08 02:14:22;;;;;;;6.53;1.97;;;12.60;99.90;;;;;;5111617;28;20188;-48
2023/08/08 02:16:48;;;;;;;4.70;1.80;;;12.60;1.00;;;;;;5110882;28;20179;-48
2023/08/08 02:19:15;;;;;;;5.20;1.77;;;12.60;99.90;;;;;;5111526;28;20243;-48
2023/08/08 02:21:40;;;;;;;5.47;2.43;;;12.70;1.00;;;;;;5111183;28;20253;-48
2023/08/08 02:24:06;;;;;;;4.40;2.00;;;12.70;99.90;;;;;;5110999;28;20761;-48
2023/08/08 02:26:31;;;;;;;6.27;1.83;;;12.70;1.00;;;;;;5111773;28;20631;-48
2023/08/08 02:28:57;;;;;;;4.33;1.70;;;12.70;1.00;;;;;;5110193;28;20219;-47
2023/08/08 02:31:23;;;;;;;3.60;2.00;;;12.70;1.00;;;;;;5110621;28;20197;-48
2023/08/08 02:33:50;;;;;;;2.90;2.03;;;12.70;1.00;;;;;;5109290;28;20716;-48
2023/08/08 02:36:16;;;;;;;10.30;2.20;;;12.70;99.90;;;;;;5107930;28;20194;-48
2023/08/08 02:38:42;;;;;;;6.67;2.30;;;12.70;99.90;;;;;;5110619;28;20462;-48
2023/08/08 02:41:07;;;;;;;3.43;1.90;;;12.70;1.00;;;;;;5110502;28;20509;-48
2023/08/08 02:43:33;;;;;;;5.23;1.97;;;12.70;99.90;;;;;;5111514;28;20223;-48
2023/08/08 02:45:58;;;;;;;4.10;1.70;;;12.70;99.90;;;;;;5111006;28;20599;-48
2023/08/08 02:48:24;;;;;;;6.13;2.03;;;12.70;1.00;;;;;;5110724;28;20530;-48
2023/08/08 02:50:49;;;;;;;4.20;1.93;;;12.80;99.90;;;;;;5109887;28;20202;-47
2023/08/08 02:53:15;;;;;;;7.40;2.53;;;12.70;99.90;;;;;;5102316;28;20201;-46
2023/08/08 02:55:40;;;;;;;6.43;1.90;;;12.70;99.90;;;;;;5109977;28;20282;-47
2023/08/08 02:58:06;;;;;;;7.10;2.00;;;12.70;1.00;;;;;;5105749;28;20550;-48
2023/08/08 03:00:32;;;;;;;5.73;2.03;;;12.70;1.00;;;;;;5109014;28;20191;-48
2023/08/08 03:02:57;;;;;;;5.23;2.10;;;12.70;1.00;;;;;;5107127;28;20190;-48
2023/08/08 03:05:23;;;;;;;4.53;2.00;;;12.70;1.00;;;;;;5110650;28;20198;-48
2023/08/08 03:07:48;;;;;;;5.90;1.90;;;12.70;1.00;;;;;;5110825;28;20572;-47
2023/08/08 03:10:14;;;;;;;5.33;2.00;;;12.80;99.90;;;;;;5107430;28;20179;-47
2023/08/08 03:12:41;;;;;;;8.70;2.73;;;12.80;99.90;;;;;;5109425;28;20192;-48
2023/08/08 03:15:07;;;;;;;6.10;2.33;;;12.80;1.00;;;;;;5111208;28;20188;-48
2023/08/08 03:17:33;;;;;;;5.20;2.13;;;12.80;1.00;;;;;;5110279;28;20443;-48
2023/08/08 03:19:59;;;;;;;5.53;1.83;;;12.80;97.70;;;;;;5109813;28;20474;-48
2023/08/08 03:22:24;;;;;;;5.20;1.80;;;12.80;1.00;;;;;;5110936;28;20357;-48
2023/08/08 03:24:50;;;;;;;4.77;2.30;;;12.80;99.90;;;;;;5109363;28;20219;-49
2023/08/08 03:27:15;;;;;;;5.03;1.80;;;12.80;99.90;;;;;;5110578;28;20623;-48
2023/08/08 03:29:41;;;;;;;3.03;1.73;;;12.80;1.00;;;;;;5110597;28;20230;-47
2023/08/08 03:32:07;;;;;;;4.50;1.73;;;12.80;1.00;;;;;;5111035;28;20187;-48
2023/08/08 03:34:32;;;;;;;4.90;1.80;;;12.80;95.50;;;;;;5109176;28;20951;-48
2023/08/08 03:36:58;;;;;;;2.00;1.80;;;12.80;1.00;;;;;;5110161;28;20186;-47
2023/08/08 03:39:23;;;;;;;7.60;2.00;;;12.80;1.00;;;;;;5110312;28;20275;-48
2023/08/08 03:41:49;;;;;;;6.10;1.80;;;12.80;1.00;;;;;;5108684;28;20230;-48
2023/08/08 03:44:14;;;;;;;5.30;2.23;;;12.80;99.90;;;;;;5110415;28;20196;-48
2023/08/08 03:46:40;;;;;;;5.23;1.90;;;12.80;99.90;;;;;;5108730;28;20200;-48
2023/08/08 03:49:05;;;;;;;10.00;1.93;;;12.70;99.90;;;;;;5109244;28;20663;-48
2023/08/08 03:51:31;;;;;;;5.37;2.20;;;12.80;99.90;;;;;;5110191;28;20598;-48
2023/08/08 03:53:57;;;;;;;4.67;2.00;;;12.70;99.90;;;;;;5108355;28;20187;-47
2023/08/08 03:56:22;;;;;;;5.03;2.00;;;12.70;99.90;;;;;;5110881;28;20216;-48
2023/08/08 03:58:48;;;;;;;3.67;2.07;;;12.70;1.00;;;;;;5109113;28;20209;-48
2023/08/08 04:01:13;;;;;;;5.20;2.20;;;12.70;1.00;;;;;;5109739;28;20216;-47
2023/08/08 04:03:39;;;;;;;5.47;1.93;;;12.70;1.00;;;;;;5109363;28;21181;-47
2023/08/08 04:06:05;;;;;;;2.33;2.00;;;12.80;1.00;;;;;;5109379;28;20534;-48
2023/08/08 04:08:30;;;;;;;4.57;2.00;;;12.70;99.90;;;;;;5109287;28;20182;-48
2023/08/08 04:10:56;;;;;;;4.37;2.10;;;12.80;1.00;;;;;;5108864;28;20227;-47
2023/08/08 04:13:21;;;;;;;6.13;2.90;;;12.80;99.90;;;;;;5110481;28;20202;-48
2023/08/08 04:15:47;;;;;;;5.60;2.27;;;12.80;1.00;;;;;;5108732;28;20698;-47
2023/08/08 04:18:13;;;;;;;3.33;2.03;;;12.80;99.90;;;;;;5109576;28;20178;-48
2023/08/08 04:20:38;;;;;;;5.47;1.80;;;12.80;1.00;;;;;;5108629;28;20346;-48
2023/08/08 04:23:04;;;;;;;4.33;2.00;;;12.80;99.90;;;;;;5109322;28;20186;-47
2023/08/08 04:25:30;;;;;;;4.73;1.80;;;12.80;99.90;;;;;;5109112;28;20576;-48
2023/08/08 04:27:55;;;;;;;6.23;2.07;;;12.80;99.90;;;;;;5107537;28;20184;-48
2023/08/08 04:30:21;;;;;;;6.60;1.80;;;12.80;26.70;;;;;;5109897;28;20187;-47
2023/08/08 04:32:46;;;;;;;2.63;1.70;;;12.70;99.90;;;;;;5106749;28;20589;-47
2023/08/08 04:35:12;;;;;;;8.63;2.30;;;12.80;1.00;;;;;;5108669;28;20236;-48
2023/08/08 04:37:38;;;;;;;3.77;2.00;;;12.80;26.50;;;;;;5108724;28;20197;-49
2023/08/08 04:40:04;;;;;;;4.60;1.80;;;12.80;99.90;;;;;;5108473;28;20183;-49
2023/08/08 04:42:30;;;;;;;6.83;1.93;;;12.80;1.00;;;;;;5108695;28;20247;-49
2023/08/08 04:44:55;;;;;;;3.97;1.67;;;12.80;1.00;;;;;;5108030;28;20892;-49
2023/08/08 04:47:21;;;;;;;3.43;1.80;;;12.80;1.00;;;;;;5110942;28;20455;-49
2023/08/08 04:49:46;;;;;;;3.23;1.70;;;12.90;99.90;;;;;;5109278;28;20187;-48
2023/08/08 04:52:12;;;;;;;4.53;2.20;;;12.90;98.50;;;;;;5111077;28;20294;-48
2023/08/08 04:54:38;;;;;;;4.80;2.10;;;12.90;34.00;;;;;;5107763;28;20245;-48
2023/08/08 04:57:03;;;;;;;8.23;1.90;;;12.90;1.00;;;;;;5109045;28;20194;-48
2023/08/08 04:59:29;;;;;;;2.13;1.87;;;12.90;99.90;;;;;;5108367;28;20529;-48
2023/08/08 05:01:54;;;;;;;2.40;1.70;;;13.00;1.00;;;;;;5107803;28;20249;-48
2023/08/08 05:04:20;;;;;;;2.90;1.73;;;13.00;1.00;;;;;;5109438;28;20192;-48
2023/08/08 05:06:46;;;;;;;3.50;1.93;;;13.10;1.00;;;;;;5107121;28;20593;-49
2023/08/08 05:09:11;;;;;;;4.37;1.87;;;13.10;99.90;;;;;;5108303;28;20604;-48
2023/08/08 05:11:37;;;;;;;3.33;1.70;;;13.20;99.90;;;;;;5108694;28;20192;-49
2023/08/08 05:14:03;;;;;;;4.93;1.97;;;13.30;1.00;;;;;;5108093;28;20631;-49
2023/08/08 05:16:28;;;;;;;3.00;1.80;;;13.40;99.90;;;;;;5108924;28;20227;-49
2023/08/08 05:18:54;;;;;;;4.23;2.10;;;13.50;99.90;;;;;;5107215;28;20232;-49
2023/08/08 05:21:21;;;;;;;4.07;2.17;;;13.50;99.90;;;;;;5109076;28;20249;-50
2023/08/08 05:23:46;;;;;;;5.30;2.00;;;13.50;99.90;;;;;;5106894;28;20241;-50
2023/08/08 05:26:12;;;;;;;3.73;1.70;;;13.60;41.50;;;;;;5107927;28;20430;-50
2023/08/08 05:28:37;;;;;;;5.10;1.70;;;13.70;1.00;;;;;;5103852;28;20773;-50
2023/08/08 05:31:03;;;;;;;6.20;2.00;;;13.80;1.00;;;;;;5108722;28;20193;-49
2023/08/08 05:33:28;;;;;;;4.93;1.80;;;13.90;99.90;;;;;;5108268;28;20183;-50
2023/08/08 05:35:54;;;;;;;2.97;1.90;;;14.00;99.90;;;;;;5107686;28;20187;-49
2023/08/08 05:38:20;;;;;;;5.67;1.50;;;14.00;99.90;;;;;;5110065;28;20184;-50
2023/08/08 05:40:45;;;;;;;7.77;2.20;;;14.20;99.90;;;;;;5107968;28;20221;-50
2023/08/08 05:43:16;;;;;;;6.47;1.90;;;14.40;1.00;;;;;;5108325;28;20526;-49
2023/08/08 05:45:42;;;;;;;2.03;1.50;;;14.60;1.00;;;;;;5108518;28;20634;-49
2023/08/08 05:48:11;;;;;;;3.80;1.50;;;14.80;99.90;;;;;;5107141;28;20456;-49
2023/08/08 05:50:40;;;;;;;3.67;2.07;;;14.90;99.90;;;;;;5108239;28;20275;-50
2023/08/08 05:53:06;;;;;;;6.57;1.53;;;14.90;99.90;;;;;;5107036;28;20433;-50
2023/08/08 05:55:32;;;;;;;3.00;1.73;;;14.90;99.90;;;;;;5107646;28;20432;-49
2023/08/08 05:57:57;;;;;;;4.83;1.90;;;14.80;99.90;;;;;;5108127;28;20247;-50
2023/08/08 06:00:23;;;;;;;8.10;2.17;;;14.80;99.90;;;;;;5106989;28;20769;-48
2023/08/08 06:02:49;;;;;;;6.13;1.90;;;14.80;99.90;;;;;;5108260;28;20667;-49
2023/08/08 06:05:16;;;;;;;19.03;2.97;;;14.80;99.90;;;;;;5105875;28;20658;-48
2023/08/08 06:07:41;;;;;;;4.27;1.80;;;14.80;99.90;;;;;;5104267;28;20199;-48
2023/08/08 06:10:08;;;;;;;4.87;2.20;;;14.80;99.90;;;;;;5105197;28;20441;-50
2023/08/08 06:12:33;;;;;;;4.30;2.30;;;14.70;1.00;;;;;;5105861;28;20677;-50
2023/08/08 06:14:59;;;;;;;3.90;2.40;;;14.80;1.00;;;;;;5107925;28;20461;-49
2023/08/08 06:17:25;;;;;;;7.87;2.30;;;14.80;1.00;;;;;;5106370;28;20239;-50
2023/08/08 06:19:50;;;;;;;1.97;1.87;;;14.70;1.00;;;;;;5105531;28;20275;-48
2023/08/08 06:22:16;;;;;;;3.00;2.13;;;14.70;1.00;;;;;;5107242;28;20222;-50
2023/08/08 06:24:42;;;;;;;4.77;2.00;;;14.80;1.00;;;;;;5106973;28;20183;-49
2023/08/08 06:27:07;;;;;;;5.57;2.10;;;15.00;99.90;;;;;;5107139;28;20433;-48
2023/08/08 06:29:33;;;;;;;4.83;2.03;;;15.30;99.90;;;;;;5105748;28;20179;-50
2023/08/08 06:31:58;;;;;;;4.40;2.10;;;15.60;99.90;;;;;;5107558;28;20202;-49
2023/08/08 06:34:24;;;;;;;2.17;1.93;;;15.90;99.90;;;;;;5104751;28;20312;-50
2023/08/08 06:36:50;;;;;;;6.00;2.50;;;16.00;95.70;;;;;;5109878;27;20192;-49
2023/08/08 06:39:15;;;;;;;4.60;2.30;;;15.90;81.00;;;;;;5110194;28;20226;-50
2023/08/08 06:41:41;;;;;;;4.27;2.30;;;15.70;80.00;;;;;;5111275;28;20677;-49
2023/08/08 06:44:07;;;;;;;5.70;2.20;;;15.60;99.90;;;;;;5110750;28;20179;-50
2023/08/08 06:46:33;;;;;;;4.53;2.07;;;15.50;99.90;;;;;;5107283;28;20181;-51
2023/08/08 06:48:59;;;;;;;6.50;2.30;;;15.50;99.90;;;;;;5111232;28;20433;-50
2023/08/08 06:51:25;;;;;;;6.23;2.07;;;15.80;99.90;;;;;;5104369;28;20307;-51
2023/08/08 06:53:51;;;;;;;8.03;2.60;;;16.20;77.40;;;;;;5103218;27;21093;-49
2023/08/08 06:56:17;;;;;;;9.70;2.43;;;16.50;5.00;;;;;;5109916;27;20232;-51
2023/08/08 06:58:43;;;;;;;6.50;1.80;;;16.80;1.00;;;;;;5108821;28;20929;-50
2023/08/08 07:01:09;;;;;;;6.73;1.90;;;17.10;1.00;;;;;;5110118;28;20675;-50
2023/08/08 07:03:36;;;;;;;6.57;2.30;;;17.10;1.00;;;;;;5109124;28;20189;-51
2023/08/08 07:06:02;;;;;;;8.90;2.20;;;16.90;1.00;;;;;;5110027;28;20771;-50
2023/08/08 07:08:29;;;;;;;4.40;2.20;;;16.70;1.00;;;;;;5108367;28;20517;-51
2023/08/08 07:10:56;;;;;;;3.60;2.10;;;16.50;1.00;;;;;;5107255;28;20514;-51
2023/08/08 07:13:22;;;;;;;4.13;1.97;;;16.60;1.00;;;;;;5110722;28;20453;-50
2023/08/08 07:15:48;;;;;;;6.03;1.60;;;17.00;1.00;;;;;;5109335;28;20442;-51
2023/08/08 07:18:14;;;;;;;2.53;1.50;;;17.40;1.00;;;;;;5111172;28;20187;-51
2023/08/08 07:20:39;;;;;;;2.00;1.40;;;17.80;1.00;;;;;;5108953;28;20733;-50
2023/08/08 07:23:05;;;;;;;2.00;1.40;;;17.80;1.00;;;;;;5109220;28;20431;-51
2023/08/08 07:25:30;;;;;;;2.33;1.37;;;17.80;1.00;;;;;;5105705;28;20225;-51
2023/08/08 07:27:56;;;;;;;6.30;1.63;;;17.90;1.00;;;;;;5109916;28;20195;-51
2023/08/08 07:30:22;;;;;;;7.13;1.60;;;18.10;1.00;;;;;;5109025;28;20184;-50
2023/08/08 07:32:47;;;;;;;4.13;1.80;;;18.50;1.00;;;;;;5110766;28;20838;-51
2023/08/08 07:35:15;;;;;;;4.43;1.80;;;18.60;1.00;;;;;;5109906;28;21821;-50
2023/08/08 07:37:40;;;;;;;3.83;1.53;;;18.50;1.00;;;;;;5103726;28;20195;-50
2023/08/08 07:40:20;;;;;;;7.13;1.90;;;18.70;1.00;;;;;;5080163;28;21721;-51
2023/08/08 07:42:47;;;;;;;1.93;1.70;;;19.00;1.00;;;;;;5091918;28;20613;-51
2023/08/08 07:45:12;;;;;;;5.27;1.93;;;19.20;1.00;;;;;;5092442;28;20483;-49
2023/08/08 07:47:38;;;;;;;6.97;1.80;;;19.20;1.00;;;;;;5099328;28;20475;-50
2023/08/08 07:50:04;;;;;;;10.10;1.97;;;18.90;1.00;;;;;;5106195;27;20189;-48
2023/08/08 07:52:30;;;;;;;4.87;2.03;;;18.90;1.00;;;;;;5108945;28;20180;-50
2023/08/08 07:54:55;;;;;;;6.00;2.57;;;18.80;1.00;;;;;;5108235;28;20939;-50
2023/08/08 07:57:21;;;;;;;6.03;2.13;;;18.60;1.00;;;;;;5107308;28;20262;-50
2023/08/08 07:59:47;;;;;;;4.67;2.20;;;18.30;1.00;;;;;;5108802;28;20185;-52
2023/08/08 08:02:12;;;;;;;3.47;2.13;;;18.10;1.00;;;;;;5102917;28;20209;-50
2023/08/08 08:04:38;;;;;;;7.33;1.90;;;18.00;1.00;;;;;;5108459;28;20215;-50
2023/08/08 08:07:03;;;;;;;4.70;2.03;;;17.80;1.00;;;;;;5108734;28;20185;-50
2023/08/08 08:09:29;;;;;;;6.27;2.07;;;17.80;1.00;;;;;;5109331;28;20493;-50
2023/08/08 08:11:55;;;;;;;5.00;2.00;;;17.70;1.00;;;;;;5108605;28;20188;-50
2023/08/08 08:14:21;;;;;;;7.10;2.40;;;17.70;1.00;;;;;;5108883;28;20526;-49
2023/08/08 08:16:48;;;;;;;9.00;2.60;;;17.70;1.00;;;;;;5109746;28;20189;-50
2023/08/08 08:19:13;;;;;;;5.93;1.90;;;17.40;1.00;;;;;;5106928;28;20477;-50
2023/08/08 08:21:39;;;;;;;5.90;2.27;;;17.10;1.00;;;;;;5110465;28;20517;-49
2023/08/08 08:24:05;;;;;;;8.67;2.13;;;16.90;1.00;;;;;;5109152;28;20192;-49
2023/08/08 08:26:31;;;;;;;7.93;2.13;;;16.90;1.00;;;;;;5103134;28;20180;-50
2023/08/08 08:28:57;;;;;;;5.53;2.30;;;17.00;1.00;;;;;;5108921;28;20513;-50
2023/08/08 08:31:23;;;;;;;5.55;1.50;;;17.00;1.00;;;;;;5108677;28;20502;-49
2023/08/08 08:33:48;;;;;;;4.20;2.10;;;16.90;1.00;;;;;;5091220;28;20197;-50
2023/08/08 08:36:14;;;;;;;3.00;2.00;;;16.90;1.00;;;;;;5107906;28;20184;-51
2023/08/08 08:38:40;;;;;;;7.40;1.90;;;16.80;1.00;;;;;;5108635;28;20185;-50
2023/08/08 08:41:05;;;;;;;2.90;1.80;;;16.80;1.00;;;;;;5107746;28;20222;-50
2023/08/08 08:43:31;;;;;;;3.00;1.33;;;16.70;1.00;;;;;;5104085;28;20282;-50
2023/08/08 08:46:00;;;;;;;2.70;1.40;;;16.50;1.00;;;;;;5109113;28;20541;-49
2023/08/08 08:48:26;;;;;;;2.83;1.30;;;16.50;1.00;;;;;;5108355;28;20455;-49
2023/08/08 08:50:52;;;;;;;5.30;1.60;;;16.40;1.00;;;;;;5106391;28;20439;-50
2023/08/08 08:53:18;;;;;;;5.03;1.10;;;16.40;1.00;;;;;;5107768;28;20659;-51
2023/08/08 08:55:44;;;;;;;2.60;1.47;;;16.60;1.00;;;;;;5109054;28;20524;-50
2023/08/08 08:58:10;;;;;;;7.73;1.67;;;16.90;1.00;;;;;;5107979;28;20177;-49
2023/08/08 09:00:36;;;;;;;3.80;1.50;;;17.10;1.00;;;;;;5107844;28;20487;-49
2023/08/08 09:03:03;;;;;;;1.83;1.30;;;17.20;1.00;;;;;;5108410;28;20484;-49
2023/08/08 09:05:30;;;;;;;4.80;1.20;;;17.10;1.00;;;;;;5108308;28;20462;-50
2023/08/08 09:07:56;;;;;;;3.67;1.23;;;17.00;1.00;;;;;;5109153;28;20479;-51
2023/08/08 09:10:21;;;;;;;3.83;1.70;;;17.00;1.00;;;;;;5106438;28;20442;-52
2023/08/08 09:12:48;;;;;;;3.93;1.70;;;16.90;1.00;;;;;;5104832;28;20280;-50
2023/08/08 09:15:14;;;;;;;1.40;1.30;;;16.90;1.00;;;;;;5106872;28;20267;-49
2023/08/08 09:17:45;;;;;;;3.10;1.30;;;16.80;1.00;;;;;;5107745;28;20846;-52
2023/08/08 09:20:12;;;;;;;6.30;1.30;;;16.90;1.00;;;;;;5106922;28;20300;-50
2023/08/08 09:22:38;;;;;;;2.90;1.10;;;17.00;1.00;;;;;;5107030;28;20558;-50
2023/08/08 09:25:05;;;;;;;5.20;1.87;;;17.10;1.00;;;;;;5106591;28;20876;-50
2023/08/08 09:27:31;;;;;;;3.90;1.27;;;17.10;1.00;;;;;;5106871;28;20593;-51
2023/08/08 09:29:56;;;;;;;3.80;1.57;;;17.10;1.00;;;;;;5107200;28;20434;-50
2023/08/08 09:32:22;;;;;;;4.43;1.20;;;17.10;1.00;;;;;;5107937;28;20245;-50
2023/08/08 09:34:47;;;;;;;4.20;1.50;;;17.10;1.00;;;;;;5107220;28;20187;-51
2023/08/08 09:37:14;;;;;;;5.50;1.50;;;17.10;1.00;;;;;;5106289;28;20229;-51
2023/08/08 09:39:40;;;;;;;21.83;14.73;;;17.00;1.00;;;;;;5108596;28;20202;-51
2023/08/08 09:42:08;;;;;;;13.33;6.80;;;16.70;1.00;;;;;;5106044;28;20466;-51
2023/08/08 09:44:35;;;;;;;3.93;1.80;;;16.60;1.00;;;;;;5109049;28;20441;-50
2023/08/08 09:47:01;;;;;;;3.30;1.83;;;16.40;1.00;;;;;;5107711;28;20437;-51
2023/08/08 09:49:27;;;;;;;4.20;1.57;;;16.20;1.00;;;;;;5106549;28;20541;-50
2023/08/08 09:51:53;;;;;;;4.00;1.63;;;16.00;3.30;;;;;;5103556;28;20527;-49
2023/08/08 09:54:20;;;;;;;2.13;1.33;;;15.80;99.90;;;;;;5107253;28;20199;-50
2023/08/08 09:56:46;;;;;;;5.90;1.90;;;15.80;91.70;;;;;;5105934;28;20440;-50
2023/08/08 09:59:12;;;;;;;3.83;1.43;;;15.80;97.90;;;;;;5105423;28;20428;-50
2023/08/08 10:01:41;;;;;;;2.70;1.10;;;15.70;99.90;;;;;;5106520;28;20712;-49
2023/08/08 10:04:08;;;;;;;5.20;1.93;;;15.60;99.90;;;;;;5106717;28;20434;-50
2023/08/08 10:06:33;;;;;;;7.20;1.70;;;15.50;99.90;;;;;;5106847;28;20847;-51
2023/08/08 10:09:03;;;;;;;3.83;1.60;;;15.40;99.90;;;;;;5106166;28;21102;-50
2023/08/08 10:11:31;;;;;;;2.80;1.97;;;15.10;1.00;;;;;;5109238;28;20198;-49
2023/08/08 10:13:57;;;;;;;2.33;1.47;;;14.90;99.90;;;;;;5111765;28;20442;-49
2023/08/08 10:16:24;;;;;;;9.03;1.80;;;14.90;1.00;;;;;;5109923;28;20539;-51
2023/08/08 10:19:01;;;;;;;5.13;1.57;;;15.00;99.90;;;;;;5109914;28;20492;-52
2023/08/08 10:21:28;;;;;;;4.40;1.33;;;15.20;1.00;;;;;;5111256;28;20477;-50
2023/08/08 10:24:06;;;;;;;3.00;1.53;;;15.20;99.90;;;;;;5108663;28;20437;-50
2023/08/08 10:26:32;;;;;;;3.60;1.53;;;15.10;99.90;;;;;;5105311;28;20441;-50
2023/08/08 10:28:59;;;;;;;6.00;1.90;;;15.00;99.90;;;;;;5109549;28;20948;-50
2023/08/08 10:31:25;;;;;;;4.10;1.80;;;14.90;99.90;;;;;;5111550;28;20472;-50
2023/08/08 10:34:01;;;;;;;3.37;1.50;;;14.80;1.00;;;;;;5111200;28;20472;-49
2023/08/08 10:36:49;;;;;;;5.37;1.70;;;14.80;1.00;;;;;;5109957;28;20241;-50
2023/08/08 10:39:17;;;;;;;6.67;1.70;;;14.80;1.00;;;;;;5107216;28;20472;-51
2023/08/08 10:41:50;;;;;;;8.67;1.87;;;15.00;1.00;;;;;;5106374;28;20476;-50
2023/08/08 10:44:25;;;;;;;3.30;1.70;;;15.30;99.90;;;;;;5109206;28;20433;-51
2023/08/08 10:46:53;;;;;;;4.30;1.50;;;15.40;1.00;;;;;;5103258;28;20443;-50
2023/08/08 10:49:19;;;;;;;4.57;1.83;;;15.50;99.90;;;;;;5099913;28;20436;-50
2023/08/08 10:51:47;;;;;;;4.30;1.60;;;15.50;1.00;;;;;;5098329;28;20494;-50
2023/08/08 10:54:17;;;;;;;3.57;1.50;;;15.50;1.00;;;;;;5106942;28;21028;-50
2023/08/08 10:56:51;;;;;;;2.67;1.27;;;15.30;1.00;;;;;;5100908;28;20851;-51
2023/08/08 10:59:22;;;;;;;6.67;1.50;;;15.10;1.00;;;;;;5100440;28;20442;-51
2023/08/08 11:01:50;;;;;;;3.73;1.20;;;14.90;26.70;;;;;;5098012;28;20477;-51
2023/08/08 11:04:19;;;;;;;1.87;1.20;;;14.80;99.90;;;;;;5093171;28;20632;-50
2023/08/08 11:06:45;;;;;;;2.40;1.37;;;14.80;1.00;;;;;;5107003;28;20532;-50
2023/08/08 11:09:10;;;;;;;2.30;1.30;;;14.90;1.00;;;;;;5096935;28;20888;-51
2023/08/08 11:11:38;;;;;;;5.37;1.33;;;15.20;99.90;;;;;;5103702;28;20192;-51
2023/08/08 11:14:15;;;;;;;2.00;1.10;;;15.60;28.60;;;;;;5103742;28;20191;-52
2023/08/08 11:16:42;;;;;;;3.43;1.30;;;15.90;1.00;;;;;;5100554;28;20539;-52
2023/08/08 11:19:09;;;;;;;2.43;1.27;;;16.10;99.90;;;;;;5105445;28;20911;-52
2023/08/08 11:21:40;;;;;;;2.77;1.20;;;16.30;99.90;;;;;;5108369;28;20591;-52
2023/08/08 11:24:07;;;;;;;2.73;1.67;;;16.00;99.90;;;;;;5111595;28;20536;-51
2023/08/08 11:26:34;;;;;;;3.90;1.47;;;15.50;99.90;;;;;;5112308;28;20429;-51
2023/08/08 11:29:01;;;;;;;5.20;1.73;;;15.10;1.00;;;;;;5110121;28;20483;-51
2023/08/08 11:31:27;;;;;;;4.47;1.67;;;14.80;1.00;;;;;;5108441;28;20503;-51
2023/08/08 11:33:54;;;;;;;5.60;1.50;;;14.70;1.00;;;;;;5109479;28;20478;-52
2023/08/08 11:36:22;;;;;;;4.37;1.60;;;14.70;1.00;;;;;;5112725;28;20436;-51
2023/08/08 11:38:48;;;;;;;2.90;1.17;;;15.00;99.90;;;;;;5110057;28;20430;-52
2023/08/08 11:41:16;;;;;;;2.37;1.10;;;16.20;99.90;;;;;;5109718;28;20464;-53
2023/08/08 11:43:43;;;;;;;5.83;1.40;;;16.50;1.00;;;;;;5108934;28;20474;-52
2023/08/08 11:46:11;;;;;;;1.90;1.30;;;16.40;99.90;;;;;;5108874;28;20480;-52
2023/08/08 11:48:37;;;;;;;2.70;1.27;;;16.40;1.00;;;;;;5110803;28;20469;-52
2023/08/08 11:51:07;;;;;;;3.73;1.53;;;16.40;1.00;;;;;;5108804;28;20475;-50
2023/08/08 11:53:33;;;;;;;4.77;1.63;;;16.30;1.00;;;;;;5107906;28;20444;-52
2023/08/08 11:56:00;;;;;;;4.80;1.43;;;16.00;1.00;;;;;;5107518;28;20450;-52
2023/08/08 11:58:26;;;;;;;2.30;1.50;;;15.70;1.00;;;;;;5109345;28;20215;-52
2023/08/08 12:00:54;;;;;;;3.30;1.43;;;15.60;1.00;;;;;;5105515;28;20928;-51
2023/08/08 12:03:20;;;;;;;7.17;1.60;;;15.70;33.40;;;;;;5105923;28;20192;-52
2023/08/08 12:05:49;;;;;;;3.70;1.50;;;16.40;40.10;;;;;;5104966;28;20473;-52
2023/08/08 12:08:21;;;;;;;2.60;1.20;;;17.20;1.00;;;;;;5108625;28;20180;-53
2023/08/08 12:10:55;;;;;;;2.30;1.43;;;17.70;99.90;;;;;;5105626;28;20553;-51
2023/08/08 12:13:22;;;;;;;4.87;1.40;;;17.90;99.90;;;;;;5105031;28;20437;-52
2023/08/08 12:15:48;;;;;;;4.73;1.37;;;17.80;97.90;;;;;;5104031;28;20445;-54
2023/08/08 12:18:20;;;;;;;3.40;1.60;;;18.20;99.90;;;;;;5105596;28;20441;-52
2023/08/08 12:20:46;;;;;;;4.87;1.37;;;19.30;40.00;;;;;;5103653;28;21074;-51
2023/08/08 12:23:12;;;;;;;3.87;1.40;;;19.90;1.00;;;;;;5108131;28;20569;-53
2023/08/08 12:25:38;;;;;;;3.53;1.30;;;19.90;1.00;;;;;;5107127;28;20708;-54
2023/08/08 12:28:04;;;;;;;4.60;1.50;;;19.60;1.00;;;;;;5106000;28;20463;-53
2023/08/08 12:30:31;;;;;;;7.40;1.70;;;19.50;1.00;;;;;;5108625;28;20469;-52
2023/08/08 12:32:57;;;;;;;3.70;1.30;;;19.60;1.00;;;;;;5102874;28;21163;-54
2023/08/08 12:35:22;;;;;;;4.13;1.50;;;19.90;1.00;;;;;;5104925;28;20957;-52
2023/08/08 12:37:48;;;;;;;6.03;1.93;;;20.20;1.00;;;;;;5103875;28;20192;-52
2023/08/08 12:40:14;;;;;;;3.43;1.23;;;20.60;1.00;;;;;;5105830;28;20224;-50
2023/08/08 12:42:39;;;;;;;5.53;2.03;;;20.90;1.00;;;;;;5093261;28;20744;-53
2023/08/08 12:45:06;;;;;;;3.33;1.70;;;22.00;1.00;;;;;;5108513;28;20230;-53
2023/08/08 12:47:32;;;;;;;5.00;1.63;;;22.60;1.00;;;;;;5111474;28;20185;-51
2023/08/08 12:49:58;;;;;;;4.97;1.40;;;22.50;1.00;;;;;;5114951;28;20428;-53